Ellinwood, Kansas
Current Conditions -  °F | °C
As of 9:55 PM on Saturday 25 Oct 2014 (Local Time) from KGBD Reporting Station
Clear Clear  
Wind Chill: 68°   Ceiling: Unl
Heat Index: 68°   Visibility: 10mi
Dew Point: 55°   Wind: 10mph
Humidity: 64%   Direction: 160°SSE
Pressure: 29.93"   Gusts: NA
Location:  38.36°N, 98.58°W
Report Text: KGBD 260255Z AUTO 16009KT 10SM CLR 20/13 A2993 RMK AO1 57010
Loading
Personal Weather Stations






























Interactive Weather Map
Tropical Storm Tracking
New forecast layout! Learn more

10-Day Weather Forecast

Advertisements
Track Severe Weather on mobile